Time;durP1;ratioP1;P1;durP2;ratioP2;P2;SDS_P1;SDS_P2;PMS_P1;PMS_P2;Temp;Humidity;BMP_temperature;BMP_pressure;BME280_temperature;BME280_humidity;BME280_pressure;Samples;Min_cycle;Max_cycle;Signal;HPM_P1;HPM_P2
2022/03/25 00:00:31;;;;;;;25.70;10.27;;;;;;;-145.69;74.12;73191.69;5075465;28;20549;-78
2022/03/25 00:02:57;;;;;;;29.37;10.70;;;;;;;-145.69;71.37;73175.75;5075149;28;20198;-77
2022/03/25 00:05:24;;;;;;;26.17;10.90;;;;;;;-145.69;74.14;73185.72;5076077;28;20252;-77
2022/03/25 00:07:52;;;;;;;24.23;10.27;;;;;;;-145.69;72.56;73189.69;5075080;28;20203;-77
2022/03/25 00:10:19;;;;;;;24.43;10.43;;;;;;;-145.69;73.23;73199.66;5075120;28;20620;-78
2022/03/25 00:12:45;;;;;;;21.80;9.83;;;;;;;-145.69;75.46;73239.47;5074876;28;20202;-78
2022/03/25 00:15:12;;;;;;;22.40;10.10;;;;;;;-145.69;76.25;73281.25;5074467;28;20231;-77
2022/03/25 00:17:38;;;;;;;24.43;10.57;;;;;;;-145.69;76.23;73269.31;5074758;28;20658;-77
2022/03/25 00:20:06;;;;;;;24.70;11.17;;;;;;;-145.69;76.74;73261.34;5075675;28;20765;-77
2022/03/25 00:22:32;;;;;;;31.17;11.40;;;;;;;-145.69;77.71;73267.34;5075417;28;20207;-77
2022/03/25 00:25:00;;;;;;;28.67;10.50;;;;;;;-145.69;79.10;73291.22;5072333;28;20664;-78
2022/03/25 00:27:27;;;;;;;28.75;13.20;;;;;;;-145.69;78.97;73293.22;5072219;28;20430;-77
2022/03/25 00:29:54;;;;;;;29.40;11.93;;;;;;;-145.69;78.49;73295.19;5073557;28;20234;-77
2022/03/25 00:32:21;;;;;;;29.97;11.07;;;;;;;-145.69;79.59;73289.22;5073367;28;20679;-77
2022/03/25 00:34:47;;;;;;;31.30;11.63;;;;;;;-145.69;80.19;73293.22;5073383;28;20195;-77
2022/03/25 00:37:14;;;;;;;27.50;11.67;;;;;;;-145.69;74.65;73225.53;5074087;28;20601;-78
2022/03/25 00:39:40;;;;;;;35.53;12.57;;;;;;;-145.69;73.42;73209.59;5075057;28;20682;-77
2022/03/25 00:42:09;;;;;;;28.60;11.63;;;;;;;-145.69;78.65;73227.50;5075122;28;20654;-77
2022/03/25 00:44:36;;;;;;;26.87;11.57;;;;;;;-145.69;79.74;73249.41;5074487;28;20305;-77
2022/03/25 00:47:02;;;;;;;26.27;11.47;;;;;;;-145.69;79.08;73277.28;5074474;28;20620;-77
2022/03/25 00:49:29;;;;;;;26.20;11.73;;;;;;;-145.69;80.32;73297.19;5074171;28;20705;-77
2022/03/25 00:51:56;;;;;;;28.40;11.93;;;;;;;-145.69;81.79;73313.13;5074972;28;20256;-77
2022/03/25 00:54:23;;;;;;;32.13;11.80;;;;;;;-145.69;81.79;73317.09;5074604;28;20290;-77
2022/03/25 00:56:50;;;;;;;26.00;11.13;;;;;;;-145.69;80.83;73307.16;5075207;28;20203;-77
2022/03/25 00:59:18;;;;;;;22.77;10.17;;;;;;;-145.69;81.54;73277.28;5074648;28;20248;-77
2022/03/25 01:01:44;;;;;;;27.10;10.80;;;;;;;-145.69;80.44;73277.28;5073873;28;20203;-77
2022/03/25 01:04:11;;;;;;;29.70;11.27;;;;;;;-145.69;80.52;73259.38;5073960;28;20198;-77
2022/03/25 01:06:37;;;;;;;28.43;12.13;;;;;;;-145.69;80.09;73265.34;5073755;28;20205;-77
2022/03/25 01:09:04;;;;;;;25.80;11.07;;;;;;;-145.69;81.27;73273.31;5073867;28;20195;-78
2022/03/25 01:11:31;;;;;;;23.47;10.17;;;;;;;-145.69;81.03;73305.16;5074003;28;20257;-78
2022/03/25 01:13:58;;;;;;;24.90;11.07;;;;;;;-145.69;82.53;73317.09;5073706;28;20207;-77
2022/03/25 01:16:26;;;;;;;30.47;11.87;;;;;;;-145.69;82.89;73319.09;5073246;28;20304;-77
2022/03/25 01:18:53;;;;;;;25.33;10.40;;;;;;;-145.69;82.96;73321.09;5073520;28;20604;-77
2022/03/25 01:21:19;;;;;;;25.77;11.27;;;;;;;-145.69;84.23;73327.06;5072777;28;20202;-78
2022/03/25 01:23:46;;;;;;;25.90;12.10;;;;;;;-145.69;83.06;73325.06;5073872;28;20253;-78
2022/03/25 01:26:12;;;;;;;29.63;11.80;;;;;;;-145.69;82.06;73309.13;5073683;28;20222;-78
2022/03/25 01:28:39;;;;;;;30.20;12.17;;;;;;;-145.69;82.49;73291.22;5073385;28;20203;-78
2022/03/25 01:31:09;;;;;;;30.70;11.53;;;;;;;-145.69;79.61;73259.38;5072938;28;20234;-78
2022/03/25 01:33:37;;;;;;;30.10;11.77;;;;;;;-145.69;77.32;73237.47;5072452;28;20194;-78
2022/03/25 01:36:04;;;;;;;29.10;12.23;;;;;;;-145.69;75.72;73225.53;5073490;28;20202;-78
2022/03/25 01:38:32;;;;;;;29.00;11.33;;;;;;;-145.69;74.52;73225.53;5072830;28;20195;-78
2022/03/25 01:40:59;;;;;;;24.90;11.07;;;;;;;-145.69;73.03;73207.59;5072730;28;20209;-78
2022/03/25 01:43:25;;;;;;;28.20;11.50;;;;;;;-145.69;73.35;73213.56;5073790;28;20206;-78
2022/03/25 01:45:53;;;;;;;23.40;10.33;;;;;;;-145.69;74.13;73227.50;5072271;28;20199;-78
2022/03/25 01:48:21;;;;;;;28.37;11.33;;;;;;;-145.69;72.68;73213.56;5073136;28;20199;-77
2022/03/25 01:50:49;;;;;;;27.00;11.20;;;;;;;-145.69;73.28;73219.56;5072454;28;20231;-77
2022/03/25 01:53:18;;;;;;;34.60;11.93;;;;;;;-145.69;73.57;73209.59;5073579;28;20654;-77
2022/03/25 01:55:50;;;;;;;27.03;12.07;;;;;;;-145.69;77.26;73223.53;5072965;28;20195;-77
2022/03/25 01:58:17;;;;;;;37.53;12.17;;;;;;;-145.69;81.84;73235.47;5073487;28;20203;-77
2022/03/25 02:00:44;;;;;;;23.83;10.47;;;;;;;-145.69;82.36;73257.38;5071803;28;20260;-77
2022/03/25 02:03:10;;;;;;;31.77;11.57;;;;;;;-145.69;82.82;73259.38;5072382;28;20202;-77
2022/03/25 02:05:39;;;;;;;28.97;11.50;;;;;;;-145.69;83.15;73263.34;5071263;28;20668;-77
2022/03/25 02:08:08;;;;;;;35.33;12.00;;;;;;;-145.69;79.03;73277.28;5072324;28;20194;-76
2022/03/25 02:10:35;;;;;;;27.93;11.00;;;;;;;-145.69;78.01;73273.31;5072597;28;20245;-78
2022/03/25 02:13:02;;;;;;;28.40;10.87;;;;;;;-145.69;76.85;73257.38;5072577;28;20199;-78
2022/03/25 02:15:33;;;;;;;24.63;10.80;;;;;;;-145.69;76.13;73253.41;5073347;28;20226;-77
2022/03/25 02:18:02;;;;;;;26.37;10.53;;;;;;;-145.69;76.98;73257.38;5073390;28;20289;-77
2022/03/25 02:20:28;;;;;;;30.20;12.17;;;;;;;-145.69;76.68;73249.41;5073827;28;20198;-77
2022/03/25 02:22:56;;;;;;;25.37;11.43;;;;;;;-145.69;78.24;73241.44;5073700;28;20199;-77
2022/03/25 02:25:26;;;;;;;26.77;12.13;;;;;;;-145.69;79.77;73257.38;5073401;28;20237;-77
2022/03/25 02:27:53;;;;;;;32.03;11.93;;;;;;;-145.69;79.73;73253.41;5072666;28;20248;-77
2022/03/25 02:30:20;;;;;;;33.07;11.80;;;;;;;-145.69;80.42;73275.28;5072782;28;20284;-77
2022/03/25 02:32:46;;;;;;;28.37;11.53;;;;;;;-145.69;81.33;73307.16;5073234;28;20555;-77
2022/03/25 02:35:13;;;;;;;31.10;12.20;;;;;;;-145.69;81.49;73321.09;5073389;28;20210;-78
2022/03/25 02:37:39;;;;;;;31.07;12.20;;;;;;;-145.69;79.91;73291.22;5073162;28;20264;-77
2022/03/25 02:40:09;;;;;;;27.03;12.33;;;;;;;-145.69;80.76;73285.25;5073357;28;20202;-77
2022/03/25 02:42:35;;;;;;;30.50;14.27;;;;;;;-145.69;82.87;73323.06;5072297;28;20440;-77
2022/03/25 02:45:01;;;;;;;31.47;12.87;;;;;;;-145.69;85.49;73352.94;5072655;28;20203;-77
2022/03/25 02:47:28;;;;;;;28.20;11.50;;;;;;;-145.69;87.03;73372.84;5073250;28;20672;-77
2022/03/25 02:49:54;;;;;;;33.87;11.53;;;;;;;-145.69;86.93;73390.75;5072516;28;20209;-77
2022/03/25 02:52:21;;;;;;;23.23;10.67;;;;;;;-145.69;88.00;73384.78;5072072;28;20210;-77
2022/03/25 02:54:47;;;;;;;31.13;11.77;;;;;;;-145.69;88.55;73368.88;5073211;28;20199;-77
2022/03/25 02:57:15;;;;;;;29.03;11.97;;;;;;;-145.69;88.14;73341.00;5072377;28;20206;-78
2022/03/25 02:59:42;;;;;;;29.70;12.40;;;;;;;-145.69;86.32;73329.03;5072155;28;20285;-77
2022/03/25 03:02:09;;;;;;;30.80;12.07;;;;;;;-145.69;81.54;73303.16;5072004;28;20206;-77
2022/03/25 03:04:38;;;;;;;26.47;11.37;;;;;;;-145.69;80.88;73283.25;5072054;28;20672;-77
2022/03/25 03:07:05;;;;;;;29.63;11.90;;;;;;;-145.69;82.09;73289.22;5072594;28;20263;-77
2022/03/25 03:09:31;;;;;;;28.40;11.80;;;;;;;-145.69;80.38;73277.28;5072550;28;20202;-78
2022/03/25 03:11:58;;;;;;;26.47;10.50;;;;;;;-145.69;80.26;73289.22;5072618;28;20230;-78
2022/03/25 03:14:26;;;;;;;34.13;12.07;;;;;;;-145.69;80.45;73277.28;5071404;28;20242;-78
2022/03/25 03:16:52;;;;;;;27.53;11.17;;;;;;;-145.69;80.84;73285.25;5072320;28;20624;-77
2022/03/25 03:19:18;;;;;;;28.53;12.07;;;;;;;-145.69;83.45;73309.13;5071978;28;20206;-77
2022/03/25 03:21:46;;;;;;;27.60;11.53;;;;;;;-145.69;82.87;73325.06;5072408;28;20210;-77
2022/03/25 03:24:12;;;;;;;28.27;11.50;;;;;;;-145.69;85.99;73346.97;5072634;28;20668;-77
2022/03/25 03:26:38;;;;;;;30.63;12.40;;;;;;;-145.69;87.76;73378.81;5072366;28;20195;-78
2022/03/25 03:29:05;;;;;;;29.13;12.13;;;;;;;-145.69;89.12;73398.72;5070872;28;20203;-77
2022/03/25 03:31:33;;;;;;;32.30;11.97;;;;;;;-145.69;87.21;73382.81;5071702;28;20222;-77
2022/03/25 03:33:59;;;;;;;31.23;11.73;;;;;;;-145.69;87.41;73368.88;5071714;28;20710;-77
2022/03/25 03:36:26;;;;;;;26.53;11.40;;;;;;;-145.69;84.31;73344.97;5072152;28;20203;-77
2022/03/25 03:38:52;;;;;;;29.33;11.00;;;;;;;-145.69;83.29;73333.03;5072251;28;20225;-77
2022/03/25 03:41:18;;;;;;;26.67;11.57;;;;;;;-145.69;84.31;73356.91;5072245;28;20190;-77
2022/03/25 03:43:45;;;;;;;26.03;11.77;;;;;;;-145.69;84.27;73388.78;5071907;28;20195;-77
2022/03/25 03:46:14;;;;;;;31.23;11.63;;;;;;;-145.69;83.03;73374.84;5071617;28;20260;-78
2022/03/25 03:48:41;;;;;;;29.57;11.67;;;;;;;-145.69;80.29;73313.13;5072121;28;20687;-78
2022/03/25 03:51:08;;;;;;;26.23;10.93;;;;;;;-145.69;80.00;73305.16;5070818;28;20268;-78
2022/03/25 03:53:35;;;;;;;24.43;11.10;;;;;;;-145.69;81.94;73313.13;5072254;28;20225;-77
2022/03/25 03:56:01;;;;;;;27.10;12.20;;;;;;;-145.69;84.41;73342.97;5072243;28;20604;-77
2022/03/25 03:58:28;;;;;;;36.47;11.93;;;;;;;-145.69;85.66;73364.88;5071796;28;20670;-77
2022/03/25 04:00:54;;;;;;;30.83;11.70;;;;;;;-145.69;86.35;73354.94;5071118;28;20207;-77
2022/03/25 04:03:20;;;;;;;28.97;12.00;;;;;;;-145.69;84.55;73364.88;5074598;28;20244;-78
2022/03/25 04:05:48;;;;;;;29.60;11.33;;;;;;;-145.69;84.47;73396.72;5075878;28;20608;-77
2022/03/25 04:08:15;;;;;;;24.90;10.93;;;;;;;-145.69;84.63;73406.69;5075150;28;20202;-78
2022/03/25 04:10:42;;;;;;;25.63;11.10;;;;;;;-145.69;83.09;73376.81;5073815;28;20287;-78
2022/03/25 04:13:09;;;;;;;29.20;11.97;;;;;;;-145.69;84.84;73325.06;5075585;28;20211;-78
2022/03/25 04:15:35;;;;;;;27.23;11.80;;;;;;;-145.69;84.82;73325.06;5074455;28;20226;-78
2022/03/25 04:18:01;;;;;;;31.70;12.13;;;;;;;-145.69;79.78;73299.19;5074747;28;20222;-77
2022/03/25 04:20:28;;;;;;;25.87;10.87;;;;;;;-145.69;80.42;73309.13;5074175;28;20195;-77
2022/03/25 04:22:57;;;;;;;28.43;11.33;;;;;;;-145.69;79.29;73321.09;5075320;28;20287;-77
2022/03/25 04:25:23;;;;;;;31.33;11.83;;;;;;;-145.69;81.22;73323.06;5075086;28;20278;-77
2022/03/25 04:27:52;;;;;;;31.03;12.47;;;;;;;-145.69;82.38;73360.91;5074891;28;20202;-77
2022/03/25 04:30:20;;;;;;;30.00;12.30;;;;;;;-145.69;84.09;73388.78;5074163;28;20203;-76
2022/03/25 04:32:47;;;;;;;32.27;12.33;;;;;;;-145.69;83.85;73384.78;5073798;28;20681;-77
2022/03/25 04:35:13;;;;;;;26.57;11.67;;;;;;;-145.69;84.36;73356.91;5075132;28;20205;-77
2022/03/25 04:37:41;;;;;;;29.70;12.20;;;;;;;-145.69;85.81;73386.78;5074893;28;20203;-77
2022/03/25 04:40:12;;;;;;;29.23;12.50;;;;;;;-145.69;87.02;73392.75;5074837;28;20206;-77
2022/03/25 04:42:39;;;;;;;29.10;11.67;;;;;;;-145.69;87.42;73384.78;5074931;28;20205;-77
2022/03/25 04:45:06;;;;;;;30.77;12.20;;;;;;;-145.69;86.92;73368.88;5074154;28;20207;-77
2022/03/25 04:47:33;;;;;;;29.67;11.97;;;;;;;-145.69;85.85;73342.97;5074456;28;20205;-78
2022/03/25 04:49:59;;;;;;;28.27;12.30;;;;;;;-145.69;88.18;73378.81;5074703;28;20203;-77
2022/03/25 04:52:26;;;;;;;31.17;12.07;;;;;;;-145.69;83.90;73368.88;5074388;28;20231;-77
2022/03/25 04:54:52;;;;;;;28.83;12.47;;;;;;;-145.69;85.04;73354.94;5074757;28;20207;-77
2022/03/25 04:57:21;;;;;;;29.83;11.83;;;;;;;-145.69;87.24;73344.97;5073897;28;20209;-77
2022/03/25 04:59:47;;;;;;;28.23;11.63;;;;;;;-145.69;85.75;73346.97;5074279;28;20227;-77
2022/03/25 05:02:14;;;;;;;29.57;12.17;;;;;;;-145.69;85.29;73342.97;5074278;28;20199;-77
2022/03/25 05:04:40;;;;;;;33.47;12.53;;;;;;;-145.69;87.62;73360.91;5074201;28;20190;-77
2022/03/25 05:07:07;;;;;;;27.30;12.23;;;;;;;-145.69;85.02;73368.88;5074512;28;20194;-77
2022/03/25 05:09:34;;;;;;;34.73;12.83;;;;;;;-145.69;82.53;73352.94;5074825;28;20203;-77
2022/03/25 05:12:00;;;;;;;31.33;11.83;;;;;;;-145.69;82.34;73364.88;5074349;28;20254;-77
2022/03/25 05:14:28;;;;;;;32.03;12.37;;;;;;;-145.69;85.49;73352.94;5072405;28;20242;-77
2022/03/25 05:16:55;;;;;;;29.07;13.47;;;;;;;-145.69;88.79;73372.84;5073427;28;20202;-78
2022/03/25 05:19:21;;;;;;;35.30;12.17;;;;;;;-145.69;89.04;73396.72;5072863;28;20205;-77
2022/03/25 05:21:48;;;;;;;35.23;12.80;;;;;;;-145.69;88.97;73400.72;5074044;28;20207;-77
2022/03/25 05:24:15;;;;;;;31.93;13.40;;;;;;;-145.69;89.24;73412.66;5073172;28;20206;-78
2022/03/25 05:26:41;;;;;;;30.07;12.63;;;;;;;-145.69;89.96;73416.66;5074604;28;20199;-77
2022/03/25 05:29:09;;;;;;;36.63;16.13;;;;;;;-145.69;86.26;73376.81;5072722;28;20461;-77
2022/03/25 05:31:38;;;;;;;31.20;13.73;;;;;;;-145.69;90.39;73388.78;5074038;28;20226;-77
2022/03/25 05:34:05;;;;;;;30.27;12.70;;;;;;;-145.69;90.23;73412.66;5073043;28;20692;-78
2022/03/25 05:36:31;;;;;;;32.13;12.30;;;;;;;-145.69;90.52;73436.56;5074594;28;20199;-77
2022/03/25 05:38:58;;;;;;;33.83;16.20;;;;;;;-145.69;92.01;73464.44;5072533;28;20462;-77
2022/03/25 05:41:25;;;;;;;33.07;14.33;;;;;;;-145.69;92.19;73462.44;5073450;28;20661;-77
2022/03/25 05:43:52;;;;;;;30.80;13.13;;;;;;;-145.69;91.72;73442.53;5073643;28;20199;-77
2022/03/25 05:46:18;;;;;;;27.50;12.87;;;;;;;-145.69;91.25;73440.53;5072124;28;20538;-78
2022/03/25 05:48:46;;;;;;;30.03;13.40;;;;;;;-145.69;92.05;73460.44;5072092;28;20226;-77
2022/03/25 05:51:13;;;;;;;32.37;13.30;;;;;;;-145.69;93.14;73458.44;5072098;28;20233;-77
2022/03/25 05:53:40;;;;;;;36.00;12.97;;;;;;;-145.69;93.48;73456.47;5072335;28;20199;-77
2022/03/25 05:56:07;;;;;;;33.60;13.33;;;;;;;-145.69;92.92;73448.50;5073378;28;20264;-78
2022/03/25 05:58:34;;;;;;;28.90;13.03;;;;;;;-145.69;92.25;73432.56;5074034;28;20199;-77
2022/03/25 06:01:01;;;;;;;32.77;13.57;;;;;;;-145.69;90.28;73392.75;5073527;28;20605;-77
2022/03/25 06:03:27;;;;;;;33.63;13.90;;;;;;;-145.69;88.86;73358.91;5072049;28;20195;-77
2022/03/25 06:05:55;;;;;;;29.97;13.27;;;;;;;-145.69;90.25;73344.97;5073596;28;20727;-77
2022/03/25 06:08:23;;;;;;;30.00;12.73;;;;;;;-145.69;88.07;73325.06;5073735;28;20199;-77
2022/03/25 06:10:49;;;;;;;31.67;13.30;;;;;;;-145.69;87.20;73309.13;5073811;28;20210;-77
2022/03/25 06:13:16;;;;;;;33.77;13.43;;;;;;;-145.69;86.90;73305.16;5073869;28;20324;-77
2022/03/25 06:15:42;;;;;;;33.97;13.87;;;;;;;-145.69;86.06;73297.19;5072923;28;20759;-77
2022/03/25 06:18:09;;;;;;;30.60;12.20;;;;;;;-145.69;85.22;73265.34;5069993;28;20198;-77
2022/03/25 06:20:35;;;;;;;31.33;12.67;;;;;;;-145.69;84.62;73261.34;5070777;28;20238;-77
2022/03/25 06:23:03;;;;;;;31.87;12.17;;;;;;;-145.69;85.33;73259.38;5071381;28;20614;-77
2022/03/25 06:25:30;;;;;;;37.13;14.17;;;;;;;-145.69;85.56;73251.41;5071214;28;20203;-77
2022/03/25 06:27:58;;;;;;;38.10;14.73;;;;;;;-145.69;86.41;73263.34;5073509;28;20221;-77
2022/03/25 06:30:27;;;;;;;35.07;15.07;;;;;;;-145.69;86.09;73265.34;5072834;28;20199;-76
2022/03/25 06:32:54;;;;;;;45.40;21.20;;;;;;;-145.69;85.42;73265.34;5072574;28;20573;-76
2022/03/25 06:35:22;;;;;;;35.57;14.27;;;;;;;-145.69;85.09;73261.34;5060140;28;20668;-77
2022/03/25 06:37:48;;;;;;;37.17;15.47;;;;;;;-145.69;85.36;73261.34;5071670;28;20202;-76
2022/03/25 06:40:16;;;;;;;74.87;30.07;;;;;;;-145.69;85.08;73247.41;5071577;28;20206;-76
2022/03/25 06:42:43;;;;;;;38.83;16.90;;;;;;;-145.69;87.43;73241.44;5071863;28;20213;-76
2022/03/25 06:45:12;;;;;;;35.27;15.73;;;;;;;-145.69;85.56;73227.50;5072474;28;20207;-77
2022/03/25 06:47:38;;;;;;;31.50;13.00;;;;;;;-145.69;84.51;73209.59;5072280;28;20206;-77
2022/03/25 06:50:07;;;;;;;30.30;13.07;;;;;;;-145.69;82.67;73181.72;5071894;28;20205;-77
2022/03/25 06:52:34;;;;;;;30.03;11.83;;;;;;;-145.69;81.23;73159.84;5072377;28;20233;-76
2022/03/25 06:55:01;;;;;;;32.47;12.20;;;;;;;-145.69;80.27;73141.91;5072977;28;20229;-77
2022/03/25 06:57:29;;;;;;;30.53;12.57;;;;;;;-145.69;79.26;73114.03;5072913;28;20199;-77
2022/03/25 06:59:56;;;;;;;29.43;13.27;;;;;;;-145.69;77.23;73062.28;5072714;28;20538;-77
2022/03/25 07:02:23;;;;;;;30.97;13.07;;;;;;;-145.69;78.39;73042.38;5072003;28;20198;-77
2022/03/25 07:04:50;;;;;;;29.00;11.90;;;;;;;-145.69;77.49;73034.41;5071666;28;20553;-77
2022/03/25 07:07:21;;;;;;;25.53;11.40;;;;;;;-145.69;75.79;73022.47;5071754;28;20203;-76
2022/03/25 07:09:48;;;;;;;29.23;11.43;;;;;;;-145.69;75.38;72996.59;5072544;28;20203;-76
2022/03/25 07:12:17;;;;;;;26.27;11.80;;;;;;;-145.69;75.42;72968.72;5071870;28;20237;-76
2022/03/25 07:14:45;;;;;;;26.53;11.53;;;;;;;-145.69;74.49;72934.88;5072135;28;20231;-76
2022/03/25 07:17:12;;;;;;;26.37;11.03;;;;;;;-145.69;74.51;72916.97;5072465;28;20260;-77
2022/03/25 07:19:38;;;;;;;31.40;11.73;;;;;;;-145.69;71.32;72891.09;5071278;28;20202;-76
2022/03/25 07:22:05;;;;;;;25.83;11.33;;;;;;;-145.69;71.06;72857.25;5071981;28;20203;-77
2022/03/25 07:24:31;;;;;;;31.07;12.67;;;;;;;-145.69;69.46;72831.38;5072254;28;20202;-77
2022/03/25 07:26:58;;;;;;;27.87;13.10;;;;;;;-145.69;67.30;72797.53;5072002;28;20201;-77
2022/03/25 07:29:24;;;;;;;26.33;13.30;;;;;;;-145.69;63.43;72769.66;5071930;28;20195;-76
2022/03/25 07:31:52;;;;;;;25.77;12.17;;;;;;;-145.69;66.38;72729.84;5072231;28;20251;-77
2022/03/25 07:34:19;;;;;;;23.63;11.63;;;;;;;-145.69;67.08;72696.00;5071510;28;20273;-77
2022/03/25 07:36:45;;;;;;;25.57;11.67;;;;;;;-145.69;65.63;72672.13;5072398;28;20561;-77
2022/03/25 07:39:15;;;;;;;25.50;11.67;;;;;;;-145.69;63.01;72654.22;5075390;28;20235;-77
2022/03/25 07:41:41;;;;;;;28.23;11.07;;;;;;;-145.69;60.55;72626.34;5075670;28;20260;-77
2022/03/25 07:44:08;;;;;;;25.23;11.70;;;;;;;-145.69;57.60;72604.44;5075245;28;20198;-77
2022/03/25 07:46:34;;;;;;;26.77;12.67;;;;;;;-145.69;56.29;72580.56;5075404;28;20558;-77
2022/03/25 07:49:02;;;;;;;26.70;12.07;;;;;;;-145.69;54.42;72556.69;5076008;28;20233;-77
2022/03/25 07:51:28;;;;;;;25.80;13.30;;;;;;;-145.69;52.39;72530.81;5074466;28;20463;-77
2022/03/25 07:53:55;;;;;;;27.53;12.03;;;;;;;-145.69;52.88;72502.94;5075919;28;20203;-77
2022/03/25 07:56:21;;;;;;;30.23;13.83;;;;;;;-145.69;49.10;72473.09;5075412;28;20251;-77
2022/03/25 07:58:48;;;;;;;31.60;13.63;;;;;;;-145.69;46.38;72437.25;5076052;28;20205;-77
2022/03/25 08:01:15;;;;;;;29.33;13.33;;;;;;;-145.69;46.84;72405.41;5075671;28;20202;-77
2022/03/25 08:03:41;;;;;;;27.10;13.03;;;;;;;-145.69;46.62;72373.56;5075382;28;20260;-77
2022/03/25 08:06:12;;;;;;;32.23;13.10;;;;;;;-145.69;45.29;72343.72;5074498;28;20202;-77
2022/03/25 08:08:39;;;;;;;29.17;12.07;;;;;;;-145.69;46.15;72329.78;5074942;28;20202;-77
2022/03/25 08:11:06;;;;;;;27.73;13.10;;;;;;;-145.69;45.26;72309.88;5075693;28;20199;-77
2022/03/25 08:13:34;;;;;;;25.97;12.83;;;;;;;-145.69;42.79;72295.94;5075212;28;20654;-77
2022/03/25 08:16:00;;;;;;;28.80;13.27;;;;;;;-145.69;43.48;72270.06;5075406;28;20230;-77
2022/03/25 08:18:27;;;;;;;27.63;13.67;;;;;;;-145.69;43.03;72256.13;5075580;28;20206;-77
2022/03/25 08:20:55;;;;;;;28.63;13.07;;;;;;;-145.69;42.10;72236.22;5075106;28;20203;-78
2022/03/25 08:28:57;;;;;;;28.53;14.13;;;;;;;-145.69;44.55;72158.63;5075270;28;20243;-76
2022/03/25 08:31:24;;;;;;;31.17;15.03;;;;;;;-145.69;42.54;72152.66;5073598;28;20198;-77
2022/03/25 08:33:51;;;;;;;30.60;13.60;;;;;;;-145.69;43.79;72150.66;5074340;28;20230;-76
2022/03/25 08:36:19;;;;;;;31.77;14.03;;;;;;;-145.69;40.12;72148.66;5073645;28;20244;-77
2022/03/25 08:38:48;;;;;;;32.43;14.10;;;;;;;-145.69;40.06;72150.66;5074507;28;20198;-75
2022/03/25 08:41:15;;;;;;;32.03;15.00;;;;;;;-145.69;39.18;72138.72;5075327;28;20552;-76
2022/03/25 08:43:42;;;;;;;28.13;14.47;;;;;;;-145.69;40.62;72118.81;5075212;28;20210;-76
2022/03/25 08:46:09;;;;;;;32.10;14.17;;;;;;;-145.69;39.89;72122.78;5074254;28;20205;-77
2022/03/25 08:48:36;;;;;;;30.03;14.63;;;;;;;-145.69;41.64;72108.84;5074489;28;20194;-77
2022/03/25 08:51:02;;;;;;;29.53;14.17;;;;;;;-145.69;39.56;72104.88;5073090;28;20187;-76
2022/03/25 08:53:29;;;;;;;33.63;14.43;;;;;;;-145.69;40.87;72102.88;5074577;28;20280;-76
2022/03/25 08:55:56;;;;;;;34.73;14.33;;;;;;;-145.69;40.92;72086.97;5074906;28;20205;-77
2022/03/25 08:58:23;;;;;;;29.27;14.17;;;;;;;-145.69;39.60;72106.88;5074868;28;20199;-77
2022/03/25 09:00:50;;;;;;;29.57;14.07;;;;;;;-145.69;40.92;72114.81;5074585;28;20194;-76
2022/03/25 09:03:16;;;;;;;28.80;14.83;;;;;;;-145.69;44.38;72092.94;5073907;28;20195;-76
2022/03/25 09:05:42;;;;;;;32.90;13.97;;;;;;;-145.69;45.10;72084.97;5072713;28;20656;-76
2022/03/25 09:08:09;;;;;;;33.43;14.47;;;;;;;-145.69;43.68;72086.97;5073902;28;20195;-76
2022/03/25 09:10:35;;;;;;;30.43;13.47;;;;;;;-145.69;41.19;72096.91;5074923;28;20209;-76
2022/03/25 09:13:03;;;;;;;30.10;13.93;;;;;;;-145.69;40.34;72098.91;5074493;28;20288;-76
2022/03/25 09:15:30;;;;;;;34.30;14.70;;;;;;;-145.69;41.45;72110.84;5073804;28;20230;-76
2022/03/25 09:17:57;;;;;;;31.33;14.13;;;;;;;-145.69;40.79;72110.84;5074548;28;20194;-76
2022/03/25 09:20:23;;;;;;;30.33;14.13;;;;;;;-145.69;40.85;72100.91;5073097;28;20199;-76
2022/03/25 09:22:53;;;;;;;32.93;14.13;;;;;;;-145.69;41.38;72079.00;5073452;28;20637;-76
2022/03/25 09:25:20;;;;;;;32.63;14.73;;;;;;;-145.69;40.52;72073.03;5074098;28;20199;-76
2022/03/25 09:27:48;;;;;;;32.77;14.63;;;;;;;-145.69;40.83;72057.13;5074435;28;20198;-77
2022/03/25 09:30:16;;;;;;;31.10;14.93;;;;;;;-145.69;41.97;72053.13;5074105;28;20221;-76
2022/03/25 09:32:43;;;;;;;33.47;14.67;;;;;;;-145.69;40.06;72051.16;5073670;28;20352;-77
2022/03/25 09:35:10;;;;;;;31.63;14.43;;;;;;;-145.69;41.21;72053.13;5073676;28;20248;-76
2022/03/25 09:37:37;;;;;;;37.70;14.37;;;;;;;-145.69;41.28;72027.25;5073990;28;20206;-76
2022/03/25 09:40:06;;;;;;;37.67;15.87;;;;;;;-145.69;39.14;72001.38;5074021;28;20658;-76
2022/03/25 09:42:34;;;;;;;33.33;14.47;;;;;;;-145.69;39.46;71993.44;5074103;28;20205;-76
2022/03/25 09:45:01;;;;;;;33.17;15.60;;;;;;;-145.69;38.43;71981.50;5073984;28;20596;-76
2022/03/25 09:47:31;;;;;;;30.00;15.10;;;;;;;-145.69;38.09;71965.56;5073896;28;20203;-76
2022/03/25 09:49:58;;;;;;;30.10;15.37;;;;;;;-145.69;37.73;71971.53;5074194;28;20205;-77
2022/03/25 09:52:28;;;;;;;29.90;15.07;;;;;;;-145.69;39.38;71949.66;5073622;28;20227;-77
2022/03/25 09:54:57;;;;;;;31.53;15.00;;;;;;;-145.69;38.48;71959.59;5073599;28;20662;-76
2022/03/25 09:57:23;;;;;;;30.77;15.10;;;;;;;-145.69;37.55;71943.69;5073967;28;20198;-77
2022/03/25 09:59:52;;;;;;;35.37;14.87;;;;;;;-145.69;38.73;71931.72;5073056;28;20285;-77
2022/03/25 10:02:19;;;;;;;31.43;14.07;;;;;;;-145.69;37.68;71911.84;5073922;28;20889;-76
2022/03/25 10:04:49;;;;;;;30.63;14.23;;;;;;;-145.69;37.72;71893.91;5073580;28;20565;-76
2022/03/25 10:07:20;;;;;;;32.67;14.80;;;;;;;-145.69;37.01;71883.97;5073783;28;20567;-76
2022/03/25 10:09:48;;;;;;;37.80;15.60;;;;;;;-145.69;37.93;71878.00;5073357;28;20210;-77
2022/03/25 10:12:23;;;;;;;30.80;14.93;;;;;;;-145.69;37.71;71883.97;5073357;28;20286;-77
2022/03/25 10:14:51;;;;;;;33.42;16.25;;;;;;;-145.69;38.03;71878.00;5073211;28;20253;-76
2022/03/25 10:17:19;;;;;;;31.17;14.53;;;;;;;-145.69;35.96;71880.00;5073530;28;20198;-77
2022/03/25 10:19:54;;;;;;;30.43;14.57;;;;;;;-145.69;36.66;71856.09;5073389;28;20290;-77
2022/03/25 10:22:21;;;;;;;32.92;15.25;;;;;;;-145.69;36.55;71828.25;5073419;28;20264;-76
2022/03/25 10:24:52;;;;;;;32.70;15.32;;;;;;;-145.69;36.88;71802.38;5073314;28;20653;-76
2022/03/25 10:27:22;;;;;;;27.48;13.55;;;;;;;-145.69;33.67;71796.41;5073389;28;20214;-76
2022/03/25 10:29:54;;;;;;;38.63;17.38;;;;;;;-145.69;35.35;71794.41;5073519;28;20230;-76
2022/03/25 10:32:25;;;;;;;32.78;15.93;;;;;;;-145.69;33.63;71772.53;5073133;28;20658;-76
2022/03/25 10:35:04;;;;;;;39.28;16.85;;;;;;;-145.69;35.70;71772.53;5072947;28;20288;-76
2022/03/25 10:37:31;;;;;;;48.95;20.50;;;;;;;-145.69;32.84;71796.41;5072854;28;20210;-76
2022/03/25 10:39:59;;;;;;;58.88;22.25;;;;;;;-145.69;33.80;71776.50;5073068;28;20656;-76
2022/03/25 10:42:26;;;;;;;35.95;17.85;;;;;;;-145.69;35.06;71774.50;5073172;28;20628;-76
2022/03/25 10:44:52;;;;;;;35.78;17.70;;;;;;;-145.69;34.40;71782.47;5073196;28;20202;-76
2022/03/25 10:47:28;;;;;;;34.47;18.65;;;;;;;-145.69;34.37;71772.53;5073112;28;20611;-76
2022/03/25 10:49:58;;;;;;;33.20;15.35;;;;;;;-145.69;35.42;71746.66;5071251;28;20588;-76
2022/03/25 10:52:30;;;;;;;37.22;16.13;;;;;;;-145.69;34.60;71738.69;5072651;28;20561;-77
2022/03/25 10:55:19;;;;;;;34.30;16.95;;;;;;;-145.69;35.62;71740.69;5071583;28;20199;-76
2022/03/25 10:57:50;;;;;;;32.58;15.55;;;;;;;-145.69;34.34;71726.75;5072677;28;20203;-76
2022/03/25 11:00:17;;;;;;;33.92;15.40;;;;;;;-145.69;33.45;71734.72;5069766;28;20194;-76
2022/03/25 11:02:44;;;;;;;31.52;15.55;;;;;;;-145.69;33.37;71736.72;5072203;28;20206;-75
2022/03/25 11:05:11;;;;;;;29.45;15.25;;;;;;;-145.69;33.34;71736.72;5072001;28;20626;-76
2022/03/25 11:07:41;;;;;;;32.75;15.95;;;;;;;-145.69;33.26;71728.75;5071285;28;20665;-76